Rolla, MO (65401)

5:36 PM CST on February 11, 2016 (GMT -0600)
College Hills | | Change Station
CLOSE
Current Station
Personal Weather Station
Location: Rolla, MO
Elevation: 1122 ft
Nearby Weather Stations

Elev 1122 ft 37.96 °N, 91.74 °W | Updated 53 seconds ago

Partly Cloudy
Partly Cloudy
35.6 °F
Feels Like 36 °F
N
0.0
Wind Variable Wind from East
Gusts 0.0 mph

Today
High -- | Low -- °F
--% Chance of Precip.
Yesterday
High -- | Low -- °F
Precip. -- in
Pressure 30.25 in
Visibility 10.0 miles
Clouds Mostly Cloudy 11000 ft
Windchill 36 °F
Dew Point 24 °F
Humidity 61%
Rainfall 0.00 in
Snow Depth Not available.
7:01 AM 5:40 PM
Waxing Crescent, 15% visible
METAR KVIH 112253Z AUTO 08005KT 10SM BKN110 01/M07 A3021 RMK AO2 SLP242 T00111067 $
Pressure 30.25 in
Visibility 10.0 miles
Clouds Mostly Cloudy 11000 ft
Windchill 36 °F
Dew Point 24 °F
Humidity 61%
Rainfall 0.00 in
Snow Depth Not available.
7:01 AM 5:40 PM
Waxing Crescent, 15% visible
METAR KVIH 112253Z AUTO 08005KT 10SM BKN110 01/M07 A3021 RMK AO2 SLP242 T00111067 $

10-Day Weather Forecast

Almanac

Astronomy

Feb. 11, 2016 Rise Set
Actual Time
Civil Twilight
Nautical Twilight
Astronomical Twilight
Moon
Length of Visible Light
Length of Day
Tomorrow will be .
, % of the Moon is Illuminated

Today's Extremes

State Highs State Lows

Community

WunderPhotos

Upload Photos

1,892,181 photos uploaded!

WunderBlog® & News

Nearby

Air Quality

  Air Quality AQ Index Pollutant
Not available.

Snow Depth

Station Depth Elevation

Earthquake Activity

City Distance Mag. Time & Date
Minimum magnitude displayed is 2.5.

Coastal Water Temperatures

Place Temperature

Stations

Nearby Weather Stations

Station Location Temp. Windchill Dew Point Humidity Wind Precip. Elev Updated Type
                   

Watches & Warnings

There are currently no watches in effect.